createdAt,value
2022-12-15T00:00:45.733Z,22.1
2022-12-15T00:02:15.869Z,22.1
2022-12-15T00:03:46.089Z,22.2
2022-12-15T00:05:16.137Z,20.9
2022-12-15T00:06:46.334Z,22.2
2022-12-15T00:08:16.441Z,23.5
2022-12-15T00:09:46.614Z,22.1
2022-12-15T00:11:16.768Z,22.4
2022-12-15T00:12:46.928Z,22.2
2022-12-15T00:14:17.080Z,22.2
2022-12-15T00:15:47.302Z,22.2
2022-12-15T00:17:17.409Z,22.2
2022-12-15T00:18:47.585Z,22.2
2022-12-15T00:20:17.738Z,22.2
2022-12-15T00:21:47.900Z,24.8
2022-12-15T00:23:18.040Z,22.3
2022-12-15T00:24:49.641Z,23.1
2022-12-15T00:26:18.380Z,22.1
2022-12-15T00:27:48.538Z,22.5
2022-12-15T00:29:18.693Z,22.2
2022-12-15T00:30:49.669Z,22.2
2022-12-15T00:32:19.035Z,22.2
2022-12-15T00:33:49.216Z,22.9
2022-12-15T00:35:19.381Z,22.2
2022-12-15T00:36:49.655Z,22.2
2022-12-15T00:38:19.694Z,22.2
2022-12-15T00:39:49.874Z,22.9
2022-12-15T00:41:20.036Z,22.3
2022-12-15T00:42:50.198Z,20
2022-12-15T00:44:20.824Z,22.2
2022-12-15T00:45:50.527Z,22.1
2022-12-15T00:47:20.685Z,22.1
2022-12-15T00:48:50.839Z,22.8
2022-12-15T00:50:21.068Z,22.1
2022-12-15T00:51:51.185Z,22.1
2022-12-15T00:53:21.335Z,22.1
2022-12-15T00:54:51.512Z,23.1
2022-12-15T00:56:21.662Z,22.3
2022-12-15T00:57:51.813Z,23.2
2022-12-15T00:59:21.967Z,22.1
2022-12-15T01:00:52.150Z,22.1
2022-12-15T01:02:22.402Z,21.6
2022-12-15T01:03:52.555Z,22.1
2022-12-15T01:05:22.650Z,21.4
2022-12-15T01:06:52.831Z,22.2
2022-12-15T01:08:22.958Z,22.1
2022-12-15T01:09:53.118Z,22.1
2022-12-15T01:11:23.305Z,21
2022-12-15T01:12:53.457Z,22.1
2022-12-15T01:14:23.612Z,22.1
2022-12-15T01:15:53.812Z,22.1
2022-12-15T01:17:23.946Z,22.2
2022-12-15T01:18:54.103Z,22.1
2022-12-15T01:20:24.260Z,19.6
2022-12-15T01:21:54.447Z,22.2
2022-12-15T01:23:24.626Z,23
2022-12-15T01:24:54.750Z,22.1
2022-12-15T01:26:24.922Z,22.8
2022-12-15T01:27:55.075Z,22.2
2022-12-15T01:29:25.230Z,23.5
2022-12-15T01:30:55.565Z,22.1
2022-12-15T01:32:25.565Z,22.4
2022-12-15T01:33:55.728Z,22.2
2022-12-15T01:35:25.875Z,22.2
2022-12-15T01:36:56.051Z,22.3
2022-12-15T01:38:26.209Z,22.3
2022-12-15T01:39:56.400Z,22.3
2022-12-15T01:41:26.564Z,22.3
2022-12-15T01:42:56.717Z,22.2
2022-12-15T01:44:26.873Z,23.4
2022-12-15T01:45:57.028Z,22.3
2022-12-15T01:47:27.213Z,22.3
2022-12-15T01:48:57.366Z,21.4
2022-12-15T01:50:27.523Z,22.3
2022-12-15T01:51:57.697Z,22.3
2022-12-15T01:53:28.088Z,22.2
2022-12-15T01:54:58.013Z,22.2
2022-12-15T01:56:31.196Z,22.2
2022-12-15T01:57:58.347Z,24
2022-12-15T01:59:28.503Z,22.2
2022-12-15T02:00:58.739Z,21.3
2022-12-15T02:02:28.944Z,22.2
2022-12-15T02:03:58.986Z,22.4
2022-12-15T02:05:29.152Z,22.1
2022-12-15T02:06:59.320Z,24.8
2022-12-15T02:08:29.473Z,22.2
2022-12-15T02:09:59.625Z,23.2
2022-12-15T02:11:29.805Z,22.1
2022-12-15T02:13:00.000Z,22.1
2022-12-15T02:14:30.127Z,22.1
2022-12-15T02:16:00.348Z,22.1
2022-12-15T02:17:30.460Z,22.1
2022-12-15T02:19:00.617Z,22.1
2022-12-15T02:20:30.772Z,22.1
2022-12-15T02:22:00.955Z,22.1
2022-12-15T02:23:31.488Z,22.1
2022-12-15T02:25:01.276Z,22.1
2022-12-15T02:26:31.466Z,22.1
2022-12-15T02:28:01.650Z,22.2
2022-12-15T02:29:31.780Z,22.2
2022-12-15T02:31:01.936Z,23.8
2022-12-15T02:32:32.112Z,22.1
2022-12-15T02:34:02.271Z,22.1
2022-12-15T02:35:32.451Z,22.2
2022-12-15T02:37:02.637Z,22.4
2022-12-15T02:38:32.802Z,22.1
2022-12-15T02:40:02.994Z,22.2
2022-12-15T02:41:33.141Z,23
2022-12-15T02:43:03.295Z,22.1
2022-12-15T02:44:33.508Z,22.1
2022-12-15T02:46:03.727Z,22.2
2022-12-15T02:47:33.801Z,22.9
2022-12-15T02:49:03.955Z,22.1
2022-12-15T02:50:34.134Z,22.1
2022-12-15T02:52:04.299Z,22.3
2022-12-15T02:53:34.861Z,22.2
2022-12-15T02:55:04.652Z,22.2
2022-12-15T02:56:34.805Z,20.4
2022-12-15T02:58:04.957Z,22.2
2022-12-15T02:59:35.131Z,22.2
2022-12-15T03:01:05.418Z,22
2022-12-15T03:02:35.636Z,22.3
2022-12-15T03:04:05.651Z,22.3
2022-12-15T03:05:35.829Z,22.3
2022-12-15T03:07:05.984Z,22.3
2022-12-15T03:08:36.145Z,22.3
2022-12-15T03:10:06.326Z,22.3
2022-12-15T03:11:36.478Z,22.2
2022-12-15T03:13:06.630Z,22.3
2022-12-15T03:14:36.785Z,21.5
2022-12-15T03:16:07.054Z,22.3
2022-12-15T03:17:37.115Z,23.6
2022-12-15T03:19:07.271Z,22.3
2022-12-15T03:20:37.449Z,23.3
2022-12-15T03:22:07.619Z,22.5
2022-12-15T03:23:37.757Z,22.9
2022-12-15T03:25:07.913Z,22.1
2022-12-15T03:26:38.098Z,22.1
2022-12-15T03:28:08.252Z,22
2022-12-15T03:29:38.408Z,21.6
2022-12-15T03:31:08.583Z,22.1
2022-12-15T03:32:38.767Z,22.2
2022-12-15T03:34:08.897Z,22.2
2022-12-15T03:35:39.084Z,22.2
2022-12-15T03:37:09.245Z,22.1
2022-12-15T03:38:39.409Z,21.8
2022-12-15T03:40:09.566Z,22.1
2022-12-15T03:41:39.747Z,22.1
2022-12-15T03:43:09.899Z,22
2022-12-15T03:44:40.055Z,22.1
2022-12-15T03:46:10.321Z,22.1
2022-12-15T03:47:40.386Z,22.1
2022-12-15T03:49:10.586Z,22.1
2022-12-15T03:50:40.715Z,22.2
2022-12-15T03:52:10.894Z,22.2
2022-12-15T03:53:41.048Z,22.2
2022-12-15T03:55:11.203Z,22.1
2022-12-15T03:56:41.385Z,22.1
2022-12-15T03:58:11.542Z,21.3
2022-12-15T03:59:41.699Z,22.1
2022-12-15T04:01:11.924Z,22.2
2022-12-15T04:02:42.087Z,22.2
2022-12-15T04:04:12.308Z,22.2
2022-12-15T04:05:42.361Z,22.1
2022-12-15T04:07:12.530Z,21.1
2022-12-15T04:08:42.689Z,22.1
2022-12-15T04:10:12.846Z,22.2
2022-12-15T04:11:43.019Z,22.2
2022-12-15T04:13:13.174Z,20.6
2022-12-15T04:14:43.327Z,22.2
2022-12-15T04:16:17.901Z,21.7
2022-12-15T04:17:43.733Z,22.2
2022-12-15T04:19:13.911Z,22.2
2022-12-15T04:20:44.044Z,22.3
2022-12-15T04:22:17.881Z,22.3
2022-12-15T04:23:44.381Z,22.4
2022-12-15T04:25:14.531Z,22.3
2022-12-15T04:26:44.719Z,21.6
2022-12-15T04:28:14.875Z,22.5
2022-12-15T04:29:45.032Z,21.5
2022-12-15T04:31:15.290Z,22.4
2022-12-15T04:32:45.357Z,22.9
2022-12-15T04:34:15.509Z,22.3
2022-12-15T04:35:45.687Z,23.2
2022-12-15T04:37:15.846Z,22.2
2022-12-15T04:38:50.680Z,22.3
2022-12-15T04:40:16.164Z,22.2
2022-12-15T04:41:46.326Z,23.1
2022-12-15T04:43:16.502Z,22.1
2022-12-15T04:44:50.020Z,22.1
2022-12-15T04:46:16.850Z,22.1
2022-12-15T04:47:46.997Z,22.1
2022-12-15T04:49:17.148Z,22.3
2022-12-15T04:50:47.318Z,22.1
2022-12-15T04:52:17.501Z,22.2
2022-12-15T04:53:47.661Z,22.1
2022-12-15T04:55:17.815Z,22.1
2022-12-15T04:56:49.865Z,22.1
2022-12-15T04:58:18.155Z,22.1
2022-12-15T04:59:48.315Z,22.1
2022-12-15T05:01:18.689Z,21.8
2022-12-15T05:02:49.829Z,23.3
2022-12-15T05:04:18.836Z,22.2
2022-12-15T05:05:48.966Z,22.5
2022-12-15T05:07:19.123Z,22.2
2022-12-15T05:08:50.175Z,22.1
2022-12-15T05:10:19.467Z,22.2
2022-12-15T05:11:49.621Z,24.2
2022-12-15T05:13:19.791Z,22.2
2022-12-15T05:14:49.944Z,22.4
2022-12-15T05:16:20.205Z,22.1
2022-12-15T05:17:50.296Z,22.2
2022-12-15T05:19:20.449Z,22.1
2022-12-15T05:20:50.604Z,22.3
2022-12-15T05:22:20.761Z,22.2
2022-12-15T05:23:50.963Z,22.2
2022-12-15T05:25:21.092Z,21.5
2022-12-15T05:26:53.115Z,22.2
2022-12-15T05:28:21.426Z,22.1
2022-12-15T05:29:51.581Z,22.2
2022-12-15T05:31:21.862Z,22.2
2022-12-15T05:32:51.885Z,22.2
2022-12-15T05:34:22.071Z,23.2
2022-12-15T05:35:52.227Z,22.3
2022-12-15T05:37:22.382Z,21.6
2022-12-15T05:38:52.558Z,22.3
2022-12-15T05:40:22.750Z,22.3
2022-12-15T05:41:52.876Z,22.3
2022-12-15T05:43:26.313Z,23.2
2022-12-15T05:44:53.237Z,22.3
2022-12-15T05:46:23.503Z,21.2
2022-12-15T05:47:53.545Z,22.4
2022-12-15T05:49:23.730Z,21.1
2022-12-15T05:50:53.885Z,22.4
2022-12-15T05:52:24.045Z,22.3
2022-12-15T05:53:54.219Z,22.3
2022-12-15T05:55:24.401Z,23.1
2022-12-15T05:56:54.525Z,22.3
2022-12-15T05:58:24.681Z,22.9
2022-12-15T05:59:54.860Z,22.2
2022-12-15T06:01:25.079Z,22.3
2022-12-15T06:02:55.211Z,22.2
2022-12-15T06:04:25.426Z,23.1
2022-12-15T06:05:56.679Z,22.4
2022-12-15T06:07:25.684Z,19.9
2022-12-15T06:08:55.895Z,22.2
2022-12-15T06:10:26.046Z,23.3
2022-12-15T06:11:56.231Z,22.1
2022-12-15T06:13:26.352Z,22.1
2022-12-15T06:14:56.537Z,22.2
2022-12-15T06:16:26.742Z,21.2
2022-12-15T06:17:56.857Z,22.1
2022-12-15T06:19:27.044Z,21.2
2022-12-15T06:20:57.207Z,22.4
2022-12-15T06:22:27.369Z,22.1
2022-12-15T06:23:57.543Z,22.1
2022-12-15T06:25:27.701Z,22.1
2022-12-15T06:26:57.857Z,22.5
2022-12-15T06:28:28.044Z,22.1
2022-12-15T06:29:58.202Z,22.1
2022-12-15T06:31:28.433Z,22
2022-12-15T06:32:58.523Z,23.1
2022-12-15T06:34:28.718Z,22.1
2022-12-15T06:35:58.885Z,23.2
2022-12-15T06:37:29.050Z,22.1
2022-12-15T06:38:59.233Z,22.1
2022-12-15T06:40:32.137Z,22.1
2022-12-15T06:41:59.559Z,22.1
2022-12-15T06:43:30.026Z,22.5
2022-12-15T06:44:59.922Z,22.2
2022-12-15T06:46:30.221Z,22.1
2022-12-15T06:48:01.612Z,22.2
2022-12-15T06:49:30.396Z,22.2
2022-12-15T06:51:00.550Z,22.4
2022-12-15T06:52:30.703Z,22.3
2022-12-15T06:54:00.893Z,22.2
2022-12-15T06:55:31.052Z,22.6
2022-12-15T06:57:01.204Z,22.6
2022-12-15T06:58:31.356Z,22.2
2022-12-15T07:00:01.539Z,22.3
2022-12-15T07:01:31.972Z,22.3
2022-12-15T07:03:02.022Z,22.3
2022-12-15T07:04:32.048Z,22.2
2022-12-15T07:06:02.220Z,22.6
2022-12-15T07:07:32.378Z,21.2
2022-12-15T07:09:02.539Z,22.4
2022-12-15T07:10:32.727Z,24
2022-12-15T07:12:02.881Z,22.2
2022-12-15T07:13:33.466Z,21.6
2022-12-15T07:15:03.227Z,22.3
2022-12-15T07:16:33.472Z,23
2022-12-15T07:18:03.597Z,22.3
2022-12-15T07:19:33.746Z,22.2
2022-12-15T07:21:03.901Z,22.5
2022-12-15T07:22:34.059Z,22.3
2022-12-15T07:24:04.582Z,22.3
2022-12-15T07:25:34.392Z,22.2
2022-12-15T07:27:04.545Z,22.2
2022-12-15T07:28:34.987Z,22.2
2022-12-15T07:30:04.892Z,22.2
2022-12-15T07:31:35.127Z,22.1
2022-12-15T07:33:05.235Z,21
2022-12-15T07:34:35.441Z,22.1
2022-12-15T07:36:05.565Z,22.9
2022-12-15T07:37:35.720Z,22.1
2022-12-15T07:39:05.884Z,23
2022-12-15T07:40:36.059Z,22.2
2022-12-15T07:42:06.212Z,22.2
2022-12-15T07:43:37.064Z,22.2
2022-12-15T07:45:06.548Z,22.2
2022-12-15T07:46:36.762Z,22.2
2022-12-15T07:48:06.861Z,23.3
2022-12-15T07:49:37.043Z,22.2
2022-12-15T07:51:11.283Z,22.4
2022-12-15T07:52:37.434Z,22.4
2022-12-15T07:54:07.587Z,22.4
2022-12-15T07:56:05.404Z,23.3
2022-12-15T07:57:07.917Z,22.6
2022-12-15T07:58:38.078Z,22.1
2022-12-15T08:00:08.257Z,22.8
2022-12-15T08:01:38.525Z,22.9
2022-12-15T08:03:08.698Z,23
2022-12-15T08:04:38.761Z,23.8
2022-12-15T08:06:08.943Z,23.1
2022-12-15T08:07:39.074Z,22.3
2022-12-15T08:09:09.232Z,23.5
2022-12-15T08:10:39.413Z,24.2
2022-12-15T08:12:09.571Z,23.3
2022-12-15T08:15:09.909Z,23.5
2022-12-15T08:16:40.171Z,26.5
2022-12-15T08:18:10.219Z,23.6
2022-12-15T08:19:40.381Z,24.4
2022-12-15T08:21:10.555Z,23.5
2022-12-15T08:22:40.737Z,23.4
2022-12-15T08:24:10.872Z,23.4
2022-12-15T08:25:41.059Z,23.3
2022-12-15T08:27:11.209Z,23.6
2022-12-15T08:28:41.369Z,24.1
2022-12-15T08:30:11.518Z,23.4
2022-12-15T08:31:41.767Z,23.5
2022-12-15T08:33:11.861Z,23.5
2022-12-15T08:34:42.023Z,24.2
2022-12-15T08:36:12.205Z,23.7
2022-12-15T08:37:42.387Z,23.7
2022-12-15T08:39:12.520Z,23.7
2022-12-15T08:40:42.704Z,23.8
2022-12-15T08:42:12.857Z,23.8
2022-12-15T08:43:47.883Z,24.6
2022-12-15T08:45:13.194Z,23.9
2022-12-15T08:46:43.371Z,24.9
2022-12-15T08:48:13.530Z,24
2022-12-15T08:49:43.683Z,22.9
2022-12-15T08:51:13.866Z,24.1
2022-12-15T08:52:55.472Z,23
2022-12-15T08:54:14.202Z,24
2022-12-15T08:55:44.339Z,24.3
2022-12-15T08:57:14.524Z,24.3
2022-12-15T08:58:44.681Z,24.3
2022-12-15T09:00:14.840Z,24.4
2022-12-15T09:01:45.257Z,25
2022-12-15T09:03:15.175Z,24.4
2022-12-15T09:04:45.433Z,22
2022-12-15T09:06:15.497Z,24.4
2022-12-15T09:07:45.662Z,25
2022-12-15T09:09:15.871Z,24.4
2022-12-15T09:10:45.980Z,22.1
2022-12-15T09:12:16.157Z,24.3
2022-12-15T09:13:46.306Z,24.4
2022-12-15T09:15:16.479Z,24.4
2022-12-15T09:16:50.421Z,24.4
2022-12-15T09:18:16.814Z,24.5
2022-12-15T09:19:46.964Z,24.7
2022-12-15T09:21:17.125Z,24.4
2022-12-15T09:22:47.304Z,24.4
2022-12-15T09:24:24.898Z,24.2
2022-12-15T09:25:47.644Z,24.4
2022-12-15T09:27:17.796Z,24.4
2022-12-15T09:28:50.025Z,24.7
2022-12-15T09:30:18.109Z,24.3
2022-12-15T09:32:20.298Z,24.3
2022-12-15T09:33:50.454Z,24.5
2022-12-15T09:35:20.604Z,24.3
2022-12-15T09:36:50.787Z,24.4
2022-12-15T09:38:20.944Z,24.3
2022-12-15T09:39:51.101Z,24.4
2022-12-15T09:41:21.284Z,24.3
2022-12-15T09:42:59.855Z,24.3
2022-12-15T09:44:21.598Z,24.5
2022-12-15T09:45:51.774Z,24.3
2022-12-15T09:47:21.951Z,24.4
2022-12-15T09:48:52.110Z,24.4
2022-12-15T09:50:22.264Z,24.4
2022-12-15T09:51:52.416Z,24.5
2022-12-15T09:53:53.390Z,24.4
2022-12-15T09:54:52.814Z,24.4
2022-12-15T09:56:22.900Z,24.4
2022-12-15T09:57:53.205Z,24.4
2022-12-15T09:59:23.253Z,24
2022-12-15T10:00:53.409Z,24.4
2022-12-15T10:02:23.718Z,24.4
2022-12-15T10:03:53.815Z,25.7
2022-12-15T10:05:29.893Z,24.4
2022-12-15T10:06:54.094Z,24.7
2022-12-15T10:08:24.273Z,24.4
2022-12-15T10:09:54.432Z,25.4
2022-12-15T10:11:24.585Z,24.4
2022-12-15T10:13:01.267Z,26.2
2022-12-15T10:14:24.914Z,24.4
2022-12-15T10:15:55.121Z,24.6
2022-12-15T10:17:25.227Z,24.2
2022-12-15T10:18:59.349Z,24.2
2022-12-15T10:20:25.571Z,24.2
2022-12-15T10:21:55.731Z,25.2
2022-12-15T10:23:25.995Z,23.7
2022-12-15T10:25:11.768Z,24.2
2022-12-15T10:26:26.227Z,24.1
2022-12-15T10:27:56.410Z,21.9
2022-12-15T10:29:26.625Z,24.2
2022-12-15T10:30:56.803Z,21.5
2022-12-15T10:32:26.880Z,24.2
2022-12-15T10:33:57.066Z,24.2
2022-12-15T10:35:27.222Z,24.1
2022-12-15T10:36:57.403Z,24.5
2022-12-15T10:38:27.563Z,24.2
2022-12-15T10:39:57.724Z,24.2
2022-12-15T10:41:27.899Z,24.2
2022-12-15T10:43:00.740Z,25.1
2022-12-15T10:44:32.145Z,24.1
2022-12-15T10:45:58.811Z,24.1
2022-12-15T10:47:28.804Z,24.1
2022-12-15T10:48:58.957Z,24.1
2022-12-15T10:50:29.116Z,25
2022-12-15T10:51:59.298Z,24.2
2022-12-15T10:53:29.762Z,24.4
2022-12-15T10:54:59.610Z,24.1
2022-12-15T10:56:33.396Z,24.8
2022-12-15T10:57:59.949Z,24.2
2022-12-15T10:59:30.102Z,25
2022-12-15T11:01:00.256Z,24.2
2022-12-15T11:02:30.709Z,24.1
2022-12-15T11:04:00.799Z,23.8
2022-12-15T11:05:30.753Z,24.1
2022-12-15T11:07:00.934Z,24.2
2022-12-15T11:08:31.090Z,24.1
2022-12-15T11:10:01.251Z,23.9
2022-12-15T11:11:31.434Z,23.9
2022-12-15T11:13:01.593Z,24
2022-12-15T11:14:31.748Z,25.2
2022-12-15T11:16:01.903Z,24
2022-12-15T11:17:32.081Z,24
2022-12-15T11:19:02.263Z,23.9
2022-12-15T11:20:32.394Z,24
2022-12-15T11:22:02.576Z,23.9
2022-12-15T11:23:33.172Z,23.9
2022-12-15T11:25:02.905Z,23.9
2022-12-15T11:26:33.059Z,24
2022-12-15T11:28:03.238Z,24.2
2022-12-15T11:29:33.391Z,24.2
2022-12-15T11:31:03.562Z,24.3
2022-12-15T11:32:33.749Z,24.3
2022-12-15T11:34:03.906Z,24.3
2022-12-15T11:35:34.106Z,24.5
2022-12-15T11:37:04.242Z,24.3
2022-12-15T11:38:34.453Z,22.3
2022-12-15T11:40:04.581Z,24.4
2022-12-15T11:41:34.768Z,24.3
2022-12-15T11:43:04.947Z,24.4
2022-12-15T11:44:35.117Z,24.4
2022-12-15T11:46:05.273Z,24.4
2022-12-15T11:47:35.462Z,24.4
2022-12-15T11:49:05.614Z,25.3
2022-12-15T11:50:35.771Z,24.4
2022-12-15T11:52:05.956Z,25.9
2022-12-15T11:53:36.488Z,24.5
2022-12-15T11:55:06.256Z,24.4
2022-12-15T11:56:36.410Z,24.5
2022-12-15T11:58:06.617Z,24.5
2022-12-15T11:59:36.770Z,24.5
2022-12-15T12:01:06.926Z,24.5
2022-12-15T12:02:37.271Z,24.4
2022-12-15T12:04:07.266Z,25.3
2022-12-15T12:05:37.418Z,24.4
2022-12-15T12:07:07.578Z,26.5
2022-12-15T12:08:37.830Z,24.4
2022-12-15T12:10:07.905Z,24.3
2022-12-15T12:11:38.061Z,24.3
2022-12-15T12:13:08.239Z,22.3
2022-12-15T12:14:38.397Z,24.2
2022-12-15T12:16:08.554Z,24.4
2022-12-15T12:17:38.715Z,24.3
2022-12-15T12:19:08.920Z,24.3
2022-12-15T12:20:39.052Z,24.2
2022-12-15T12:22:09.209Z,25.3
2022-12-15T12:23:39.418Z,24.3
2022-12-15T12:25:09.552Z,24.2
2022-12-15T12:26:39.703Z,24.1
2022-12-15T12:28:09.883Z,24.1
2022-12-15T12:29:40.044Z,24
2022-12-15T12:31:10.195Z,24.5
2022-12-15T12:32:40.358Z,24
2022-12-15T12:34:10.536Z,24
2022-12-15T12:35:40.696Z,23.8
2022-12-15T12:37:10.849Z,23.8
2022-12-15T12:38:41.051Z,23.8
2022-12-15T12:40:11.304Z,23.7
2022-12-15T12:41:41.369Z,23.7
2022-12-15T12:43:13.979Z,24.1
2022-12-15T12:44:41.701Z,23.7
2022-12-15T12:46:11.861Z,23.7
2022-12-15T12:47:42.036Z,23.6
2022-12-15T12:49:12.274Z,23.6
2022-12-15T12:50:42.441Z,24.4
2022-12-15T12:52:12.593Z,23.6
2022-12-15T12:53:42.775Z,23.7
2022-12-15T12:55:14.770Z,23.9
2022-12-15T12:56:43.118Z,23.8
2022-12-15T12:58:13.252Z,23.8
2022-12-15T12:59:43.433Z,23.6
2022-12-15T13:01:13.676Z,24.1
2022-12-15T13:02:43.844Z,23.9
2022-12-15T13:04:13.929Z,23.8
2022-12-15T13:05:44.085Z,22.7
2022-12-15T13:07:14.240Z,23.9
2022-12-15T13:08:44.402Z,23.8
2022-12-15T13:10:14.686Z,23.8
2022-12-15T13:11:44.760Z,23.8
2022-12-15T13:13:14.944Z,25.5
2022-12-15T13:14:46.650Z,23.8
2022-12-15T13:16:15.260Z,24.1
2022-12-15T13:17:45.415Z,24
2022-12-15T13:19:15.572Z,23.9
2022-12-15T13:20:45.752Z,23.9
2022-12-15T13:22:15.905Z,24.1
2022-12-15T13:23:46.057Z,23.8
2022-12-15T13:25:16.246Z,23.8
2022-12-15T13:27:18.405Z,23.8
2022-12-15T13:28:48.601Z,23.8
2022-12-15T13:30:18.750Z,23.7
2022-12-15T13:31:49.246Z,24
2022-12-15T13:33:19.077Z,24.2
2022-12-15T13:34:49.229Z,23.8
2022-12-15T13:36:19.401Z,25
2022-12-15T13:37:49.559Z,23.8
2022-12-15T13:39:19.711Z,23.8
2022-12-15T13:40:50.515Z,23.7
2022-12-15T13:42:41.797Z,23.8
2022-12-15T13:43:50.210Z,23.8
2022-12-15T13:45:20.420Z,23.8
2022-12-15T13:46:50.552Z,23.7
2022-12-15T13:48:20.779Z,24.6
2022-12-15T13:49:54.562Z,23.5
2022-12-15T13:51:21.068Z,23.5
2022-12-15T13:53:17.651Z,23.7
2022-12-15T13:54:21.375Z,22.6
2022-12-15T13:55:51.556Z,23.5
2022-12-15T13:57:21.719Z,23.5
2022-12-15T13:58:51.877Z,23.5
2022-12-15T14:00:22.036Z,24.2
2022-12-15T14:01:52.331Z,23.5
2022-12-15T14:03:22.460Z,23.6
2022-12-15T14:04:52.537Z,23.6
2022-12-15T14:06:22.720Z,25.7
2022-12-15T14:07:54.866Z,23.5
2022-12-15T14:09:23.032Z,22.7
2022-12-15T14:10:53.184Z,23.5
2022-12-15T14:12:23.364Z,22
2022-12-15T14:13:54.525Z,23.4
2022-12-15T14:15:23.687Z,24.1
2022-12-15T14:16:53.915Z,23.4
2022-12-15T14:18:24.066Z,23.4
2022-12-15T14:19:54.325Z,23.4
2022-12-15T14:21:24.504Z,23.4
2022-12-15T14:22:54.662Z,23.4
2022-12-15T14:24:40.772Z,23.4
2022-12-15T14:25:55.040Z,23.4
2022-12-15T14:27:25.227Z,23.4
2022-12-15T14:28:55.400Z,23.4
2022-12-15T14:30:25.576Z,23
2022-12-15T14:31:55.788Z,23.4
2022-12-15T14:33:29.570Z,23.5
2022-12-15T14:34:56.172Z,23.3
2022-12-15T14:36:26.247Z,23.4
2022-12-15T14:37:56.400Z,23.3
2022-12-15T14:39:26.554Z,23.3
2022-12-15T14:40:56.712Z,23.3
2022-12-15T14:42:26.889Z,22.5
2022-12-15T14:44:32.303Z,23.2
2022-12-15T14:45:27.204Z,22.6
2022-12-15T14:46:57.384Z,23.2
2022-12-15T14:48:43.040Z,24.4
2022-12-15T14:49:57.720Z,23.2
2022-12-15T14:51:27.894Z,23.9
2022-12-15T14:52:58.052Z,23.3
2022-12-15T14:54:28.209Z,23.3
2022-12-15T14:55:58.363Z,23.3
2022-12-15T14:57:28.551Z,23.3
2022-12-15T14:58:58.710Z,23.4
2022-12-15T15:00:28.867Z,23.2
2022-12-15T15:01:59.397Z,23.1
2022-12-15T15:03:29.218Z,23.1
2022-12-15T15:04:59.373Z,23.1
2022-12-15T15:06:29.524Z,23.1
2022-12-15T15:07:59.739Z,23.1
2022-12-15T15:09:29.875Z,23.1
2022-12-15T15:11:00.021Z,24
2022-12-15T15:12:30.204Z,23
2022-12-15T15:14:00.360Z,23.2
2022-12-15T15:15:30.517Z,22.8
2022-12-15T15:17:00.725Z,22.8
2022-12-15T15:18:31.133Z,22.8
2022-12-15T15:20:01.014Z,22.8
2022-12-15T15:21:31.197Z,22.9
2022-12-15T15:23:01.402Z,23
2022-12-15T15:24:31.540Z,22.7
2022-12-15T15:26:01.698Z,21.9
2022-12-15T15:27:31.876Z,22.7
2022-12-15T15:29:02.034Z,22.3
2022-12-15T15:30:32.235Z,22.6
2022-12-15T15:32:02.346Z,22.7
2022-12-15T15:33:32.527Z,22.8
2022-12-15T15:35:02.681Z,23
2022-12-15T15:36:32.831Z,22.8
2022-12-15T15:38:03.006Z,21
2022-12-15T15:39:33.185Z,22.9
2022-12-15T15:41:03.323Z,22.7
2022-12-15T15:42:33.483Z,22.7
2022-12-15T15:44:03.660Z,22.6
2022-12-15T15:45:33.815Z,22.5
2022-12-15T15:47:03.967Z,22.5
2022-12-15T15:48:34.671Z,22.5
2022-12-15T15:50:04.303Z,22.8
2022-12-15T15:51:34.461Z,22.5
2022-12-15T15:53:04.615Z,22.5
2022-12-15T15:54:34.835Z,21.4
2022-12-15T15:56:04.965Z,22.4
2022-12-15T15:57:35.126Z,22.3
2022-12-15T15:59:05.306Z,22.4
2022-12-15T16:00:35.462Z,22.4
2022-12-15T16:02:05.755Z,22.3
2022-12-15T16:03:35.876Z,22.3
2022-12-15T16:05:05.966Z,22.2
2022-12-15T16:06:36.128Z,22.2
2022-12-15T16:08:06.279Z,22.2
2022-12-15T16:09:36.468Z,22.4
2022-12-15T16:11:06.655Z,22.7
2022-12-15T16:12:36.791Z,22.7
2022-12-15T16:14:06.975Z,22.7
2022-12-15T16:15:37.173Z,22.4
2022-12-15T16:17:07.306Z,21.1
2022-12-15T16:18:37.458Z,22.5
2022-12-15T16:20:07.639Z,22.2
2022-12-15T16:21:37.796Z,22.5
2022-12-15T16:23:07.962Z,21.5
2022-12-15T16:24:38.146Z,22.6
2022-12-15T16:26:08.304Z,21.6
2022-12-15T16:27:38.488Z,22.6
2022-12-15T16:29:08.637Z,22.2
2022-12-15T16:30:38.821Z,22.7
2022-12-15T16:32:08.962Z,22.7
2022-12-15T16:33:39.132Z,22.6
2022-12-15T16:35:09.311Z,21.6
2022-12-15T16:36:39.470Z,22.6
2022-12-15T16:38:09.624Z,22.6
2022-12-15T16:39:39.817Z,22.6
2022-12-15T16:41:09.966Z,22.4
2022-12-15T16:42:40.121Z,22.5
2022-12-15T16:44:10.322Z,22.5
2022-12-15T16:45:40.453Z,22.5
2022-12-15T16:47:10.616Z,22.5
2022-12-15T16:48:40.869Z,22.5
2022-12-15T16:50:10.954Z,21.7
2022-12-15T16:51:41.109Z,22.4
2022-12-15T16:53:11.274Z,22.4
2022-12-15T16:54:41.450Z,22.3
2022-12-15T16:56:11.598Z,22.2
2022-12-15T16:57:41.757Z,22.3
2022-12-15T16:59:34.164Z,21.5
2022-12-15T17:00:42.113Z,22.4
2022-12-15T17:02:12.367Z,21.7
2022-12-15T17:03:42.461Z,22.5
2022-12-15T17:05:12.610Z,22.5
2022-12-15T17:06:42.765Z,22.6
2022-12-15T17:08:12.920Z,22.5
2022-12-15T17:09:43.100Z,22.5
2022-12-15T17:11:16.232Z,22.4
2022-12-15T17:12:46.388Z,22.6
2022-12-15T17:14:16.572Z,22.6
2022-12-15T17:15:46.850Z,22.6
2022-12-15T17:17:16.892Z,22.3
2022-12-15T17:18:47.036Z,22.6
2022-12-15T17:20:28.859Z,22.4
2022-12-15T17:21:47.383Z,23
2022-12-15T17:23:17.541Z,22.7
2022-12-15T17:24:47.698Z,22.8
2022-12-15T17:26:26.114Z,22.8
2022-12-15T17:27:48.030Z,23
2022-12-15T17:29:18.215Z,23
2022-12-15T17:30:48.441Z,23
2022-12-15T17:32:18.550Z,23.1
2022-12-15T17:33:48.704Z,24
2022-12-15T17:35:18.884Z,22.9
2022-12-15T17:36:49.045Z,22.9
2022-12-15T17:38:19.201Z,22.9
2022-12-15T17:39:49.354Z,22.9
2022-12-15T17:41:42.709Z,22.9
2022-12-15T17:42:49.710Z,22.9
2022-12-15T17:44:36.017Z,22.9
2022-12-15T17:45:50.116Z,23.8
2022-12-15T17:47:20.210Z,22.9
2022-12-15T17:48:50.373Z,25
2022-12-15T17:50:20.549Z,22.9
2022-12-15T17:51:50.714Z,23.8
2022-12-15T17:53:20.877Z,23
2022-12-15T17:54:51.040Z,22.8
2022-12-15T17:56:21.215Z,22.8
2022-12-15T17:57:51.371Z,22.7
2022-12-15T17:59:21.535Z,22.8
2022-12-15T18:00:51.771Z,21.8
2022-12-15T18:02:21.992Z,22.9
2022-12-15T18:03:52.076Z,23
2022-12-15T18:05:22.278Z,23
2022-12-15T18:06:55.438Z,22.8
2022-12-15T18:08:22.543Z,23.1
2022-12-15T18:09:52.701Z,23.1
2022-12-15T18:11:22.891Z,23.2
2022-12-15T18:12:53.064Z,23.2
2022-12-15T18:14:23.229Z,22.4
2022-12-15T18:15:53.515Z,23.2
2022-12-15T18:17:23.717Z,23.8
2022-12-15T18:18:53.708Z,23.4
2022-12-15T18:20:23.867Z,24.4
2022-12-15T18:21:54.043Z,23.4
2022-12-15T18:23:24.198Z,23.4
2022-12-15T18:24:54.398Z,23.4
2022-12-15T18:26:24.548Z,23.5
2022-12-15T18:27:54.708Z,23.5
2022-12-15T18:29:24.863Z,21.7
2022-12-15T18:30:55.017Z,23.5
2022-12-15T18:32:25.204Z,23.5
2022-12-15T18:33:58.323Z,23.5
2022-12-15T18:35:25.510Z,24.4
2022-12-15T18:36:55.696Z,23.4
2022-12-15T18:38:25.869Z,23.5
2022-12-15T18:39:58.275Z,23.5
2022-12-15T18:41:26.220Z,24.4
2022-12-15T18:42:56.376Z,23.8
2022-12-15T18:44:26.530Z,23.6
2022-12-15T18:45:56.681Z,23.6
2022-12-15T18:47:26.895Z,23
2022-12-15T18:48:57.021Z,23.6
2022-12-15T18:50:27.199Z,22.7
2022-12-15T18:51:57.358Z,23.7
2022-12-15T18:53:27.514Z,24.8
2022-12-15T18:54:57.678Z,23.3
2022-12-15T18:56:27.852Z,23
2022-12-15T18:57:58.075Z,22.7
2022-12-15T18:59:28.378Z,21.3
2022-12-15T19:00:58.626Z,21.8
2022-12-15T19:02:28.984Z,21.7
2022-12-15T19:03:58.914Z,22.6
2022-12-15T19:05:29.389Z,21.4
2022-12-15T19:06:59.255Z,21.8
2022-12-15T19:08:29.409Z,21.6
2022-12-15T19:09:59.564Z,22.2
2022-12-15T19:11:29.719Z,21.1
2022-12-15T19:12:59.899Z,21.1
2022-12-15T19:14:30.052Z,21.6
2022-12-15T19:16:00.268Z,23.9
2022-12-15T19:17:30.393Z,20.9
2022-12-15T19:19:00.549Z,20.9
2022-12-15T19:20:30.701Z,20.9
2022-12-15T19:22:00.886Z,21
2022-12-15T19:23:31.414Z,21
2022-12-15T19:25:01.194Z,21.1
2022-12-15T19:26:31.346Z,21.1
2022-12-15T19:28:01.528Z,21.1
2022-12-15T19:29:31.685Z,22
2022-12-15T19:31:01.831Z,21.1
2022-12-15T19:32:31.992Z,22.3
2022-12-15T19:34:02.173Z,21.2
2022-12-15T19:35:32.329Z,22.1
2022-12-15T19:37:02.537Z,21.2
2022-12-15T19:38:32.682Z,21.4
2022-12-15T19:40:02.836Z,21.2
2022-12-15T19:41:32.997Z,21.2
2022-12-15T19:43:03.175Z,20.9
2022-12-15T19:44:33.344Z,19.5
2022-12-15T19:46:03.546Z,21.2
2022-12-15T19:47:33.653Z,21.3
2022-12-15T19:49:03.829Z,21.3
2022-12-15T19:50:33.985Z,17.4
2022-12-15T19:52:04.146Z,21.3
2022-12-15T19:53:34.752Z,21.1
2022-12-15T19:55:04.480Z,21.3
2022-12-15T19:56:34.643Z,21.3
2022-12-15T19:58:04.799Z,21.4
2022-12-15T19:59:34.983Z,21.1
2022-12-15T20:01:05.209Z,22
2022-12-15T20:02:35.475Z,21.4
2022-12-15T20:04:05.522Z,21.4
2022-12-15T20:05:35.675Z,21.4
2022-12-15T20:07:05.828Z,21.3
2022-12-15T20:08:36.013Z,21.4